createdAt,value
2018-07-17T00:00:01.375Z,3.20
2018-07-17T00:02:30.174Z,3.70
2018-07-17T00:04:58.979Z,3.47
2018-07-17T00:07:27.766Z,3.47
2018-07-17T00:09:56.583Z,3.53
2018-07-17T00:12:25.363Z,3.70
2018-07-17T00:14:54.159Z,3.40
2018-07-17T00:17:22.963Z,3.90
2018-07-17T00:19:51.799Z,3.90
2018-07-17T00:22:20.554Z,3.80
2018-07-17T00:24:49.354Z,3.80
2018-07-17T00:27:18.146Z,4.07
2018-07-17T00:29:47.279Z,4.17
2018-07-17T00:32:16.044Z,4.10
2018-07-17T00:34:44.850Z,4.00
2018-07-17T00:37:13.655Z,4.03
2018-07-17T00:39:42.374Z,4.23
2018-07-17T00:42:11.046Z,4.00
2018-07-17T00:44:39.851Z,4.37
2018-07-17T00:47:08.648Z,4.23
2018-07-17T00:49:37.530Z,4.00
2018-07-17T00:52:06.326Z,4.23
2018-07-17T00:54:35.208Z,4.30
2018-07-17T00:57:04.011Z,4.13
2018-07-17T00:59:32.810Z,4.60
2018-07-17T01:02:07.154Z,4.33
2018-07-17T01:04:41.322Z,4.70
2018-07-17T01:07:15.800Z,4.40
2018-07-17T01:09:50.013Z,4.40
2018-07-17T01:12:18.138Z,5.00
2018-07-17T01:14:52.622Z,5.07
2018-07-17T01:17:21.945Z,4.77
2018-07-17T01:19:50.745Z,4.53
2018-07-17T01:22:19.618Z,4.80
2018-07-17T01:24:48.413Z,5.13
2018-07-17T01:27:17.201Z,4.67
2018-07-17T01:29:45.997Z,4.60
2018-07-17T01:32:14.799Z,4.97
2018-07-17T01:34:43.657Z,4.50
2018-07-17T01:37:12.450Z,4.37
2018-07-17T01:39:41.246Z,4.73
2018-07-17T01:42:10.047Z,4.73
2018-07-17T01:44:38.859Z,4.70
2018-07-17T01:47:07.645Z,4.70
2018-07-17T01:49:36.447Z,5.00
2018-07-17T01:52:06.121Z,5.00
2018-07-17T01:54:34.922Z,4.67
2018-07-17T01:57:03.705Z,5.40
2018-07-17T01:59:32.486Z,4.97
2018-07-17T02:02:01.287Z,4.90
2018-07-17T02:04:30.080Z,4.90
2018-07-17T02:06:58.878Z,4.90
2018-07-17T02:09:27.672Z,4.67
2018-07-17T02:11:56.474Z,4.30
2018-07-17T02:14:25.272Z,4.83
2018-07-17T02:16:54.067Z,4.67
2018-07-17T02:19:22.855Z,4.50
2018-07-17T02:21:51.650Z,4.63
2018-07-17T02:24:20.437Z,4.30
2018-07-17T02:26:49.258Z,4.37
2018-07-17T02:29:18.045Z,4.33
2018-07-17T02:31:47.178Z,4.67
2018-07-17T02:34:15.972Z,4.47
2018-07-17T02:36:44.753Z,4.43
2018-07-17T02:39:13.549Z,4.70
2018-07-17T02:41:42.346Z,4.90
2018-07-17T02:44:11.158Z,4.90
2018-07-17T02:46:39.950Z,4.80
2018-07-17T02:49:08.744Z,4.50
2018-07-17T02:51:37.548Z,4.50
2018-07-17T02:54:06.355Z,4.50
2018-07-17T02:56:35.159Z,4.57
2018-07-17T02:59:03.980Z,5.33
2018-07-17T03:01:32.766Z,5.03
2018-07-17T03:04:01.556Z,5.00
2018-07-17T03:06:30.354Z,4.93
2018-07-17T03:08:59.145Z,4.70
2018-07-17T03:11:27.960Z,4.63
2018-07-17T03:13:56.742Z,4.07
2018-07-17T03:16:25.534Z,4.30
2018-07-17T03:18:54.327Z,4.80
2018-07-17T03:21:23.118Z,4.57
2018-07-17T03:23:51.899Z,4.57
2018-07-17T03:26:20.703Z,4.90
2018-07-17T03:28:49.508Z,4.57
2018-07-17T03:31:18.298Z,5.00
2018-07-17T03:33:47.086Z,4.67
2018-07-17T03:36:15.892Z,4.67
2018-07-17T03:38:44.672Z,4.90
2018-07-17T03:41:13.475Z,4.43
2018-07-17T03:43:42.263Z,4.60
2018-07-17T03:46:11.067Z,5.20
2018-07-17T03:48:39.880Z,6.03
2018-07-17T03:51:09.310Z,5.13
2018-07-17T03:53:38.102Z,5.60
2018-07-17T03:56:06.920Z,4.83
2018-07-17T03:58:35.723Z,5.87
2018-07-17T04:01:05.347Z,5.57
2018-07-17T04:03:34.134Z,5.53
2018-07-17T04:06:02.926Z,4.93
2018-07-17T04:08:31.724Z,4.50
2018-07-17T04:11:00.526Z,4.50
2018-07-17T04:13:29.476Z,4.40
2018-07-17T04:15:58.155Z,4.80
2018-07-17T04:18:26.947Z,4.50
2018-07-17T04:20:55.747Z,4.57
2018-07-17T04:23:24.531Z,5.23
2018-07-17T04:25:53.374Z,4.90
2018-07-17T04:28:22.170Z,5.80
2018-07-17T04:30:50.963Z,4.63
2018-07-17T04:33:19.773Z,5.40
2018-07-17T04:35:48.564Z,4.90
2018-07-17T04:38:17.431Z,5.40
2018-07-17T04:40:46.003Z,5.57
2018-07-17T04:43:14.696Z,5.87
2018-07-17T04:45:43.488Z,5.00
2018-07-17T04:48:12.307Z,5.57
2018-07-17T04:50:41.103Z,4.87
2018-07-17T04:53:09.903Z,4.70
2018-07-17T04:55:38.688Z,5.10
2018-07-17T04:58:07.486Z,5.20
2018-07-17T05:00:36.297Z,5.07
2018-07-17T05:03:05.246Z,5.00
2018-07-17T05:05:33.967Z,5.90
2018-07-17T05:08:02.630Z,4.77
2018-07-17T05:10:31.431Z,5.10
2018-07-17T05:13:00.274Z,5.13
2018-07-17T05:15:29.238Z,4.90
2018-07-17T05:17:58.034Z,5.37
2018-07-17T05:20:27.002Z,5.17
2018-07-17T05:22:55.830Z,4.77
2018-07-17T05:25:24.601Z,4.83
2018-07-17T05:27:53.470Z,4.73
2018-07-17T05:30:22.254Z,5.20
2018-07-17T05:32:51.134Z,4.77
2018-07-17T05:35:19.950Z,4.60
2018-07-17T05:37:48.714Z,4.33
2018-07-17T05:40:17.525Z,4.13
2018-07-17T05:42:46.311Z,4.37
2018-07-17T05:45:15.112Z,4.47
2018-07-17T05:47:43.894Z,4.07
2018-07-17T05:50:12.962Z,4.07
2018-07-17T05:52:42.095Z,4.17
2018-07-17T05:55:10.882Z,4.20
2018-07-17T05:57:39.687Z,4.47
2018-07-17T06:00:09.200Z,3.87
2018-07-17T06:02:38.022Z,3.97
2018-07-17T06:05:06.919Z,3.70
2018-07-17T06:07:36.128Z,3.73
2018-07-17T06:10:05.055Z,3.53
2018-07-17T06:12:33.846Z,3.90
2018-07-17T06:15:02.627Z,4.13
2018-07-17T06:17:31.427Z,4.10
2018-07-17T06:20:00.268Z,3.57
2018-07-17T06:22:29.012Z,3.60
2018-07-17T06:24:57.916Z,3.33
2018-07-17T06:27:26.651Z,3.43
2018-07-17T06:29:55.498Z,3.80
2018-07-17T06:32:24.243Z,3.50
2018-07-17T06:34:53.027Z,3.40
2018-07-17T06:37:21.870Z,3.20
2018-07-17T06:39:50.672Z,3.53
2018-07-17T06:42:19.854Z,3.50
2018-07-17T06:44:48.870Z,3.30
2018-07-17T06:47:17.788Z,3.17
2018-07-17T06:49:46.550Z,3.03
2018-07-17T06:52:15.338Z,3.40
2018-07-17T06:54:44.151Z,3.30
2018-07-17T06:57:12.945Z,3.00
2018-07-17T06:59:41.881Z,3.83
2018-07-17T07:02:10.706Z,3.23
2018-07-17T07:04:39.493Z,3.47
2018-07-17T07:07:08.278Z,3.47
2018-07-17T07:09:37.074Z,2.90
2018-07-17T07:12:06.176Z,3.03
2018-07-17T07:14:34.963Z,3.30
2018-07-17T07:17:03.764Z,3.20
2018-07-17T07:19:32.570Z,3.23
2018-07-17T07:22:01.483Z,3.40
2018-07-17T07:24:30.283Z,3.97
2018-07-17T07:26:59.081Z,3.90
2018-07-17T07:29:27.874Z,3.77
2018-07-17T07:31:56.724Z,3.60
2018-07-17T07:34:25.527Z,3.50
2018-07-17T07:36:54.358Z,3.57
2018-07-17T07:39:23.136Z,3.80
2018-07-17T07:41:51.931Z,3.63
2018-07-17T07:44:20.745Z,3.50
2018-07-17T07:46:49.538Z,3.10
2018-07-17T07:49:18.340Z,3.10
2018-07-17T07:51:47.119Z,3.10
2018-07-17T07:54:15.925Z,3.73
2018-07-17T07:56:44.714Z,3.37
2018-07-17T07:59:13.506Z,3.40
2018-07-17T08:01:42.298Z,3.47
2018-07-17T08:04:11.094Z,3.40
2018-07-17T08:06:40.088Z,3.23
2018-07-17T08:09:09.265Z,3.73
2018-07-17T08:11:38.250Z,4.17
2018-07-17T08:14:06.983Z,3.57
2018-07-17T08:16:35.783Z,3.57
2018-07-17T08:19:04.590Z,3.13
2018-07-17T08:21:33.386Z,3.67
2018-07-17T08:24:02.188Z,3.40
2018-07-17T08:26:30.987Z,3.67
2018-07-17T08:28:59.830Z,3.17
2018-07-17T08:31:28.606Z,3.40
2018-07-17T08:33:57.403Z,4.33
2018-07-17T08:36:26.178Z,3.77
2018-07-17T08:38:54.990Z,3.80
2018-07-17T08:41:23.779Z,4.33
2018-07-17T08:43:52.583Z,3.30
2018-07-17T08:46:21.379Z,3.40
2018-07-17T08:48:50.273Z,3.67
2018-07-17T08:51:19.273Z,3.30
2018-07-17T08:53:48.098Z,3.50
2018-07-17T08:56:17.046Z,3.13
2018-07-17T08:58:45.847Z,3.30
2018-07-17T09:01:14.655Z,3.00
2018-07-17T09:03:43.434Z,3.20
2018-07-17T09:06:12.230Z,3.40
2018-07-17T09:08:41.045Z,3.40
2018-07-17T09:11:09.854Z,3.30
2018-07-17T09:13:38.634Z,3.20
2018-07-17T09:16:07.480Z,3.47
2018-07-17T09:18:36.650Z,3.20
2018-07-17T09:21:05.852Z,3.20
2018-07-17T09:23:34.834Z,3.40
2018-07-17T09:26:03.644Z,3.13
2018-07-17T09:28:32.430Z,3.07
2018-07-17T09:31:02.330Z,3.07
2018-07-17T09:33:31.850Z,3.50
2018-07-17T09:36:01.039Z,3.23
2018-07-17T09:38:30.318Z,3.40
2018-07-17T09:40:59.123Z,2.97
2018-07-17T09:43:28.005Z,2.90
2018-07-17T09:45:56.802Z,3.33
2018-07-17T09:48:25.798Z,3.20
2018-07-17T09:50:54.585Z,3.27
2018-07-17T09:53:23.455Z,3.03
2018-07-17T09:55:52.255Z,3.50
2018-07-17T09:58:21.060Z,3.33
2018-07-17T10:00:55.427Z,3.17
2018-07-17T10:03:24.219Z,3.60
2018-07-17T10:05:53.014Z,3.67
2018-07-17T10:08:21.813Z,3.43
2018-07-17T10:10:50.618Z,3.30
2018-07-17T10:13:19.402Z,3.33
2018-07-17T10:15:48.202Z,2.87
2018-07-17T10:18:17.068Z,3.13
2018-07-17T10:20:45.873Z,3.57
2018-07-17T10:23:14.657Z,3.43
2018-07-17T10:25:43.470Z,3.30
2018-07-17T10:28:12.278Z,3.20
2018-07-17T10:30:41.079Z,3.67
2018-07-17T10:33:10.610Z,3.10
2018-07-17T10:35:39.393Z,2.93
2018-07-17T10:38:08.186Z,3.20
2018-07-17T10:40:37.351Z,3.30
2018-07-17T10:43:06.395Z,3.70
2018-07-17T10:45:35.579Z,3.70
2018-07-17T10:48:04.586Z,3.10
2018-07-17T10:50:33.384Z,3.33
2018-07-17T10:53:02.258Z,3.67
2018-07-17T10:55:31.054Z,3.60
2018-07-17T10:57:59.930Z,3.20
2018-07-17T11:00:28.726Z,3.43
2018-07-17T11:02:57.514Z,3.67
2018-07-17T11:05:26.315Z,3.50
2018-07-17T11:07:55.110Z,3.30
2018-07-17T11:10:23.972Z,3.57
2018-07-17T11:12:53.079Z,3.27
2018-07-17T11:15:21.969Z,3.30
2018-07-17T11:17:50.886Z,3.13
2018-07-17T11:20:19.666Z,3.17
2018-07-17T11:22:48.443Z,3.33
2018-07-17T11:25:17.238Z,3.80
2018-07-17T11:27:46.040Z,3.30
2018-07-17T11:30:14.870Z,2.80
2018-07-17T11:32:43.773Z,3.20
2018-07-17T11:35:12.558Z,2.87
2018-07-17T11:37:41.363Z,2.90
2018-07-17T11:40:10.150Z,3.07
2018-07-17T11:42:38.942Z,3.27
2018-07-17T11:45:07.812Z,2.80
2018-07-17T11:47:36.705Z,3.20
2018-07-17T11:50:05.791Z,2.70
2018-07-17T11:52:34.603Z,3.07
2018-07-17T11:55:03.381Z,2.83
2018-07-17T11:57:32.186Z,2.60
2018-07-17T12:00:00.975Z,2.60
2018-07-17T12:02:29.770Z,2.90
2018-07-17T12:04:58.713Z,2.87
2018-07-17T12:07:27.511Z,3.20
2018-07-17T12:09:56.334Z,3.20
2018-07-17T12:12:25.140Z,4.00
2018-07-17T12:14:53.968Z,3.27
2018-07-17T12:17:22.884Z,3.53
2018-07-17T12:19:51.730Z,3.00
2018-07-17T12:22:20.478Z,3.20
2018-07-17T12:24:49.348Z,3.53
2018-07-17T12:27:18.135Z,3.60
2018-07-17T12:29:47.011Z,5.07
2018-07-17T12:32:15.801Z,4.77
2018-07-17T12:34:44.683Z,4.10
2018-07-17T12:37:13.505Z,3.87
2018-07-17T12:39:42.366Z,3.67
2018-07-17T12:42:11.265Z,3.70
2018-07-17T12:44:40.142Z,4.13
2018-07-17T12:47:08.948Z,3.43
2018-07-17T12:49:37.738Z,3.40
2018-07-17T12:52:06.565Z,3.87
2018-07-17T12:54:35.673Z,4.83
2018-07-17T12:57:04.510Z,4.50
2018-07-17T12:59:33.425Z,3.40
2018-07-17T13:02:02.277Z,2.80
2018-07-17T13:04:31.159Z,2.80
2018-07-17T13:06:59.970Z,2.80
2018-07-17T13:09:28.758Z,2.87
2018-07-17T13:11:57.634Z,2.53
2018-07-17T13:14:26.520Z,2.70
2018-07-17T13:16:55.318Z,2.93
2018-07-17T13:19:24.106Z,2.90
2018-07-17T13:21:52.903Z,2.70
2018-07-17T13:24:22.268Z,2.40
2018-07-17T13:26:51.062Z,2.80
2018-07-17T13:29:19.918Z,2.50
2018-07-17T13:31:48.950Z,2.50
2018-07-17T13:34:17.750Z,2.80
2018-07-17T13:36:46.634Z,2.80
2018-07-17T13:39:15.484Z,2.60
2018-07-17T13:41:44.811Z,2.80
2018-07-17T13:44:14.008Z,2.77
2018-07-17T13:46:43.146Z,2.83
2018-07-17T13:49:12.482Z,2.77
2018-07-17T13:51:41.492Z,3.47
2018-07-17T13:54:10.750Z,3.17
2018-07-17T13:56:39.834Z,3.10
2018-07-17T13:59:09.120Z,3.63
2018-07-17T14:01:38.184Z,4.07
2018-07-17T14:04:07.834Z,3.37
2018-07-17T14:06:37.155Z,2.90
2018-07-17T14:09:07.985Z,3.00
2018-07-17T14:11:37.359Z,2.93
2018-07-17T14:14:06.503Z,2.93
2018-07-17T14:16:35.466Z,3.13
2018-07-17T14:19:04.770Z,3.03
2018-07-17T14:21:33.942Z,3.17
2018-07-17T14:24:03.092Z,3.20
2018-07-17T14:26:32.173Z,3.03
2018-07-17T14:29:01.416Z,2.80
2018-07-17T14:31:30.591Z,3.20
2018-07-17T14:34:00.057Z,3.43
2018-07-17T14:36:29.543Z,3.30
2018-07-17T14:38:58.550Z,3.43
2018-07-17T14:41:27.762Z,3.70
2018-07-17T14:43:56.689Z,3.43
2018-07-17T14:46:26.019Z,3.93
2018-07-17T14:48:55.384Z,3.60
2018-07-17T14:51:24.625Z,3.50
2018-07-17T14:53:53.801Z,3.37
2018-07-17T14:56:22.960Z,3.47
2018-07-17T14:58:52.111Z,3.50
2018-07-17T15:01:21.463Z,3.40
2018-07-17T15:03:50.247Z,4.40
2018-07-17T15:06:19.064Z,3.27
2018-07-17T15:08:47.946Z,3.10
2018-07-17T15:11:16.747Z,3.27
2018-07-17T15:13:45.542Z,3.40
2018-07-17T15:16:14.321Z,3.17
2018-07-17T15:18:43.193Z,3.13
2018-07-17T15:21:11.982Z,3.40
2018-07-17T15:23:40.779Z,3.40
2018-07-17T15:26:09.599Z,3.13
2018-07-17T15:28:38.389Z,3.23
2018-07-17T15:31:07.187Z,3.13
2018-07-17T15:33:44.993Z,3.10
2018-07-17T15:36:14.843Z,3.20
2018-07-17T15:38:43.638Z,3.20
2018-07-17T15:41:12.566Z,3.17
2018-07-17T15:43:41.334Z,3.27
2018-07-17T15:46:10.211Z,2.90
2018-07-17T15:48:39.092Z,3.20
2018-07-17T15:51:07.983Z,3.33
2018-07-17T15:53:36.877Z,3.60
2018-07-17T15:56:05.754Z,3.60
2018-07-17T15:58:34.563Z,3.30
2018-07-17T16:01:03.372Z,3.77
2018-07-17T16:03:32.170Z,3.80
2018-07-17T16:06:01.101Z,3.13
2018-07-17T16:08:29.846Z,3.40
2018-07-17T16:10:58.647Z,3.47
2018-07-17T16:13:27.640Z,3.50
2018-07-17T16:15:56.267Z,4.00
2018-07-17T16:18:25.085Z,6.13
2018-07-17T16:20:53.870Z,3.93
2018-07-17T16:23:22.695Z,3.70
2018-07-17T16:25:51.491Z,3.60
2018-07-17T16:28:20.281Z,3.70
2018-07-17T16:30:49.095Z,3.50
2018-07-17T16:33:17.992Z,3.70
2018-07-17T16:35:46.795Z,3.30
2018-07-17T16:38:15.631Z,3.60
2018-07-17T16:40:44.334Z,3.20
2018-07-17T16:43:13.015Z,3.30
2018-07-17T16:45:41.820Z,3.23
2018-07-17T16:48:10.628Z,3.33
2018-07-17T16:50:39.430Z,3.10
2018-07-17T16:53:08.234Z,3.73
2018-07-17T16:55:37.039Z,3.70
2018-07-17T16:58:05.899Z,3.37
2018-07-17T17:00:34.674Z,3.63
2018-07-17T17:03:03.546Z,2.97
2018-07-17T17:05:32.423Z,3.60
2018-07-17T17:08:01.227Z,4.00
2018-07-17T17:10:30.240Z,3.63
2018-07-17T17:12:59.054Z,3.67
2018-07-17T17:15:27.855Z,3.60
2018-07-17T17:17:56.683Z,3.93
2018-07-17T17:20:25.554Z,3.77
2018-07-17T17:22:54.349Z,3.87
2018-07-17T17:25:23.152Z,3.80
2018-07-17T17:27:51.934Z,3.77
2018-07-17T17:30:20.739Z,4.10
2018-07-17T17:32:49.647Z,3.77
2018-07-17T17:35:18.395Z,3.60
2018-07-17T17:37:47.173Z,3.80
2018-07-17T17:40:16.068Z,4.10
2018-07-17T17:42:44.850Z,3.73
2018-07-17T17:45:13.638Z,3.90
2018-07-17T17:47:42.451Z,3.70
2018-07-17T17:50:11.254Z,3.90
2018-07-17T17:52:40.042Z,4.00
2018-07-17T17:55:08.851Z,3.87
2018-07-17T17:57:37.874Z,3.83
2018-07-17T18:00:07.009Z,3.50
2018-07-17T18:02:35.923Z,4.10
2018-07-17T18:05:04.987Z,3.40
2018-07-17T18:07:33.792Z,3.73
2018-07-17T18:10:02.784Z,4.00
2018-07-17T18:12:31.583Z,3.97
2018-07-17T18:15:00.430Z,3.70
2018-07-17T18:17:29.485Z,3.93
2018-07-17T18:19:58.267Z,3.60
2018-07-17T18:22:27.069Z,3.77
2018-07-17T18:24:55.911Z,4.20
2018-07-17T18:27:24.695Z,4.10
2018-07-17T18:29:53.492Z,4.17
2018-07-17T18:32:22.340Z,3.80
2018-07-17T18:34:51.127Z,4.00
2018-07-17T18:37:19.914Z,4.50
2018-07-17T18:39:49.159Z,3.60
2018-07-17T18:42:18.047Z,3.90
2018-07-17T18:44:46.747Z,4.00
2018-07-17T18:47:15.555Z,3.90
2018-07-17T18:49:44.338Z,4.13
2018-07-17T18:52:13.161Z,3.80
2018-07-17T18:54:41.964Z,3.80
2018-07-17T18:57:10.854Z,3.80
2018-07-17T18:59:39.615Z,4.23
2018-07-17T19:02:08.506Z,4.07
2018-07-17T19:04:37.306Z,3.90
2018-07-17T19:07:06.098Z,4.07
2018-07-17T19:09:34.953Z,3.90
2018-07-17T19:12:03.766Z,3.77
2018-07-17T19:14:32.559Z,3.70
2018-07-17T19:17:01.450Z,4.00
2018-07-17T19:19:30.137Z,3.67
2018-07-17T19:21:58.930Z,3.70
2018-07-17T19:24:27.723Z,3.70
2018-07-17T19:26:56.576Z,4.17
2018-07-17T19:29:25.471Z,3.90
2018-07-17T19:31:54.270Z,3.80
2018-07-17T19:34:23.062Z,3.70
2018-07-17T19:36:51.857Z,4.20
2018-07-17T19:39:20.639Z,3.77
2018-07-17T19:41:49.442Z,3.70
2018-07-17T19:44:18.239Z,3.43
2018-07-17T19:46:47.040Z,3.20
2018-07-17T19:49:15.822Z,3.47
2018-07-17T19:51:44.633Z,3.73
2018-07-17T19:54:13.428Z,4.03
2018-07-17T19:56:42.246Z,3.93
2018-07-17T19:59:11.033Z,3.80
2018-07-17T20:01:39.835Z,3.70
2018-07-17T20:04:08.622Z,3.73
2018-07-17T20:06:37.427Z,4.03
2018-07-17T20:09:07.102Z,3.90
2018-07-17T20:11:35.922Z,4.03
2018-07-17T20:14:04.737Z,4.10
2018-07-17T20:16:33.594Z,4.07
2018-07-17T20:19:02.377Z,4.17
2018-07-17T20:21:31.174Z,3.90
2018-07-17T20:24:00.068Z,4.20
2018-07-17T20:26:28.943Z,3.93
2018-07-17T20:28:57.664Z,4.37
2018-07-17T20:31:26.350Z,4.17
2018-07-17T20:33:54.947Z,3.97
2018-07-17T20:36:23.742Z,4.10
2018-07-17T20:38:52.591Z,4.70
2018-07-17T20:41:21.386Z,4.33
2018-07-17T20:43:50.176Z,4.17
2018-07-17T20:46:18.970Z,4.23
2018-07-17T20:48:47.766Z,4.63
2018-07-17T20:51:17.543Z,4.47
2018-07-17T20:53:46.334Z,3.90
2018-07-17T20:56:15.131Z,4.33
2018-07-17T20:58:43.945Z,4.10
2018-07-17T21:01:12.714Z,4.30
2018-07-17T21:03:41.507Z,4.53
2018-07-17T21:06:10.114Z,4.27
2018-07-17T21:08:38.790Z,4.30
2018-07-17T21:11:07.623Z,4.70
2018-07-17T21:13:36.418Z,4.23
2018-07-17T21:16:06.114Z,4.20
2018-07-17T21:18:34.915Z,4.67
2018-07-17T21:21:03.721Z,4.57
2018-07-17T21:23:32.507Z,4.23
2018-07-17T21:26:01.307Z,4.33
2018-07-17T21:28:30.098Z,4.87
2018-07-17T21:30:58.893Z,4.60
2018-07-17T21:33:27.686Z,4.60
2018-07-17T21:35:56.532Z,4.73
2018-07-17T21:38:25.290Z,4.90
2018-07-17T21:40:54.074Z,5.00
2018-07-17T21:43:22.874Z,5.00
2018-07-17T21:45:51.666Z,5.10
2018-07-17T21:48:20.480Z,5.00
2018-07-17T21:50:49.262Z,4.60
2018-07-17T21:53:18.059Z,4.73
2018-07-17T21:55:46.846Z,4.60
2018-07-17T21:58:15.658Z,4.70
2018-07-17T22:00:44.450Z,4.67
2018-07-17T22:03:13.249Z,4.77
2018-07-17T22:05:42.074Z,4.80
2018-07-17T22:08:10.857Z,4.40
2018-07-17T22:10:39.654Z,4.53
2018-07-17T22:13:08.461Z,4.10
2018-07-17T22:15:37.253Z,4.80
2018-07-17T22:18:06.159Z,4.20
2018-07-17T22:20:34.958Z,4.57
2018-07-17T22:23:03.755Z,4.40
2018-07-17T22:25:32.546Z,4.10
2018-07-17T22:28:01.363Z,4.57
2018-07-17T22:30:30.355Z,4.70
2018-07-17T22:32:59.183Z,4.93
2018-07-17T22:35:28.117Z,4.77
2018-07-17T22:37:56.910Z,4.20
2018-07-17T22:40:25.722Z,4.47
2018-07-17T22:42:54.510Z,4.50
2018-07-17T22:45:23.306Z,4.23
2018-07-17T22:47:52.093Z,4.40
2018-07-17T22:50:20.892Z,4.37
2018-07-17T22:52:49.683Z,4.53
2018-07-17T22:55:18.463Z,4.33
2018-07-17T22:57:47.257Z,4.50
2018-07-17T23:00:16.044Z,4.70
2018-07-17T23:02:44.838Z,4.20
2018-07-17T23:05:13.771Z,4.40
2018-07-17T23:07:42.563Z,4.47
2018-07-17T23:10:11.365Z,4.53
2018-07-17T23:12:40.171Z,4.43
2018-07-17T23:15:08.967Z,4.63
2018-07-17T23:17:37.793Z,4.80
2018-07-17T23:20:06.573Z,4.47
2018-07-17T23:22:45.890Z,4.93
2018-07-17T23:25:14.674Z,4.60
2018-07-17T23:27:43.472Z,4.80
2018-07-17T23:30:12.268Z,4.73
2018-07-17T23:32:41.052Z,4.77
2018-07-17T23:35:09.867Z,4.47
2018-07-17T23:37:38.655Z,4.40
2018-07-17T23:40:07.477Z,4.80
2018-07-17T23:42:36.275Z,4.80
2018-07-17T23:45:05.163Z,4.87
2018-07-17T23:47:33.954Z,4.50
2018-07-17T23:50:02.773Z,5.10
2018-07-17T23:52:31.576Z,4.93
2018-07-17T23:55:00.365Z,5.20
2018-07-17T23:57:29.162Z,4.70
2018-07-17T23:59:57.961Z,4.80
